createdAt,value
2018-09-03T00:00:49.344Z,20.00
2018-09-03T00:03:17.679Z,20.00
2018-09-03T00:05:45.980Z,20.00
2018-09-03T00:08:14.272Z,20.00
2018-09-03T00:10:42.555Z,20.00
2018-09-03T00:13:10.845Z,20.00
2018-09-03T00:15:39.248Z,19.90
2018-09-03T00:18:07.532Z,19.90
2018-09-03T00:20:35.827Z,19.70
2018-09-03T00:23:04.171Z,19.80
2018-09-03T00:25:32.487Z,19.70
2018-09-03T00:28:00.807Z,19.80
2018-09-03T00:30:29.095Z,19.80
2018-09-03T00:33:03.841Z,19.80
2018-09-03T00:35:37.390Z,19.80
2018-09-03T00:38:11.088Z,19.80
2018-09-03T00:40:48.259Z,19.70
2018-09-03T00:43:21.891Z,19.70
2018-09-03T00:45:55.432Z,19.70
2018-09-03T00:48:23.871Z,19.70
2018-09-03T00:50:52.225Z,19.60
2018-09-03T00:53:20.501Z,19.50
2018-09-03T00:55:50.623Z,19.50
2018-09-03T00:58:19.111Z,19.50
2018-09-03T01:00:59.129Z,19.40
2018-09-03T01:03:27.436Z,19.40
2018-09-03T01:05:55.711Z,19.30
2018-09-03T01:08:23.988Z,19.30
2018-09-03T01:10:52.239Z,19.30
2018-09-03T01:13:20.545Z,19.30
2018-09-03T01:15:48.807Z,19.20
2018-09-03T01:18:17.079Z,19.20
2018-09-03T01:20:49.331Z,19.10
2018-09-03T01:23:17.808Z,19.00
2018-09-03T01:32:47.332Z,18.90
2018-09-03T01:35:16.603Z,18.80
2018-09-03T01:37:47.679Z,18.80
2018-09-03T01:40:16.626Z,18.80
2018-09-03T01:42:45.639Z,18.80
2018-09-03T01:45:14.627Z,18.70
2018-09-03T01:47:43.806Z,18.70
2018-09-03T01:50:12.938Z,18.60
2018-09-03T01:52:41.798Z,18.60
2018-09-03T01:55:11.035Z,18.50
2018-09-03T01:57:40.024Z,18.40
2018-09-03T02:00:09.165Z,18.40
2018-09-03T02:02:38.362Z,18.40
2018-09-03T02:05:07.467Z,18.30
2018-09-03T02:07:36.713Z,18.30
2018-09-03T02:10:06.085Z,18.30
2018-09-03T02:12:46.166Z,18.30
2018-09-03T02:15:15.546Z,18.30
2018-09-03T02:17:44.970Z,18.20
2018-09-03T02:20:14.503Z,18.20
2018-09-03T02:22:43.575Z,18.20
2018-09-03T02:25:12.746Z,18.10
2018-09-03T02:27:42.039Z,18.10
2018-09-03T02:30:11.143Z,18.10
2018-09-03T02:32:40.779Z,18.00
2018-09-03T02:35:10.118Z,18.00
2018-09-03T02:37:39.566Z,18.00
2018-09-03T02:40:08.651Z,17.90
2018-09-03T02:42:37.804Z,17.90
2018-09-03T02:45:08.001Z,17.90
2018-09-03T02:47:37.325Z,17.80
2018-09-03T02:50:06.782Z,17.80
2018-09-03T02:52:36.469Z,17.70
2018-09-03T02:55:05.634Z,17.70
2018-09-03T02:57:34.950Z,17.70
2018-09-03T03:00:04.111Z,17.70
2018-09-03T03:02:33.270Z,17.60
2018-09-03T03:05:05.980Z,17.60
2018-09-03T03:07:35.100Z,17.50
2018-09-03T03:10:04.202Z,17.50
2018-09-03T03:12:33.280Z,17.40
2018-09-03T03:15:02.446Z,17.40
2018-09-03T03:17:31.443Z,17.40
2018-09-03T03:20:00.280Z,17.40
2018-09-03T03:22:29.542Z,17.30
2018-09-03T03:24:58.627Z,17.30
2018-09-03T03:27:27.523Z,17.30
2018-09-03T03:29:56.542Z,17.20
2018-09-03T03:32:41.200Z,17.20
2018-09-03T03:35:11.423Z,17.10
2018-09-03T03:37:44.471Z,17.10
2018-09-03T03:40:13.675Z,17.00
2018-09-03T03:42:42.910Z,17.00
2018-09-03T03:45:12.039Z,17.00
2018-09-03T03:47:41.142Z,17.00
2018-09-03T03:50:10.344Z,16.90
2018-09-03T03:52:39.685Z,16.90
2018-09-03T03:55:09.186Z,16.90
2018-09-03T03:57:38.052Z,16.90
2018-09-03T04:00:13.156Z,16.90
2018-09-03T04:02:42.600Z,16.80
2018-09-03T04:05:12.098Z,16.80
2018-09-03T04:07:41.337Z,16.80
2018-09-03T04:10:10.502Z,16.80
2018-09-03T04:12:44.209Z,16.70
2018-09-03T04:15:13.489Z,16.70
2018-09-03T04:17:42.487Z,16.70
2018-09-03T04:20:11.746Z,16.70
2018-09-03T04:22:45.168Z,16.70
2018-09-03T04:25:14.786Z,16.70
2018-09-03T04:27:44.011Z,16.70
2018-09-03T04:30:13.249Z,16.70
2018-09-03T04:32:42.393Z,16.70
2018-09-03T04:35:11.594Z,16.70
2018-09-03T04:37:40.691Z,16.60
2018-09-03T04:40:10.071Z,16.60
2018-09-03T04:42:39.380Z,16.70
2018-09-03T04:45:08.423Z,16.70
2018-09-03T04:47:37.544Z,16.70
2018-09-03T04:50:06.763Z,16.80
2018-09-03T04:52:35.643Z,16.70
2018-09-03T04:55:04.938Z,16.70
2018-09-03T04:57:33.960Z,16.70
2018-09-03T05:00:03.409Z,16.70
2018-09-03T05:02:32.391Z,16.70
2018-09-03T05:05:02.552Z,16.70
2018-09-03T05:07:31.644Z,16.70
2018-09-03T05:10:00.564Z,16.70
2018-09-03T05:12:29.954Z,16.70
2018-09-03T05:14:59.100Z,16.70
2018-09-03T05:17:27.970Z,16.80
2018-09-03T05:19:57.814Z,16.80
2018-09-03T05:22:26.916Z,16.80
2018-09-03T05:24:56.019Z,16.90
2018-09-03T05:27:24.892Z,16.90
2018-09-03T05:29:54.038Z,16.90
2018-09-03T05:32:24.974Z,16.90
2018-09-03T05:35:05.725Z,16.90
2018-09-03T05:37:34.925Z,16.90
2018-09-03T05:40:03.927Z,16.90
2018-09-03T05:42:33.084Z,16.90
2018-09-03T05:45:02.304Z,17.00
2018-09-03T05:47:31.338Z,17.10
2018-09-03T05:50:00.378Z,17.10
2018-09-03T05:52:29.464Z,17.10
2018-09-03T05:54:58.496Z,17.20
2018-09-03T05:57:27.265Z,17.20
2018-09-03T05:59:56.500Z,17.30
2018-09-03T06:02:25.608Z,17.30
2018-09-03T06:04:54.890Z,17.30
2018-09-03T06:07:24.108Z,17.40
2018-09-03T06:09:53.297Z,17.40
2018-09-03T06:12:22.706Z,17.50
2018-09-03T06:14:51.874Z,17.50
2018-09-03T06:17:21.087Z,17.50
2018-09-03T06:19:50.299Z,17.60
2018-09-03T06:22:19.428Z,17.60
2018-09-03T06:24:48.673Z,17.70
2018-09-03T06:27:17.856Z,17.70
2018-09-03T06:29:47.090Z,17.70
2018-09-03T06:32:16.383Z,17.70
2018-09-03T06:34:45.590Z,17.90
2018-09-03T06:37:14.809Z,18.00
2018-09-03T06:39:44.070Z,18.10
2018-09-03T06:42:13.333Z,18.20
2018-09-03T06:44:42.575Z,18.30
2018-09-03T06:47:11.881Z,18.40
2018-09-03T06:49:41.053Z,18.40
2018-09-03T06:52:10.480Z,18.50
2018-09-03T06:54:39.427Z,18.60
2018-09-03T06:57:08.512Z,18.70
2018-09-03T06:59:37.495Z,18.80
2018-09-03T07:02:06.969Z,18.80
2018-09-03T07:04:36.122Z,18.90
2018-09-03T07:07:05.312Z,18.90
2018-09-03T07:09:34.326Z,18.90
2018-09-03T07:12:03.428Z,19.00
2018-09-03T07:14:32.310Z,19.00
2018-09-03T07:17:01.535Z,19.10
2018-09-03T07:19:30.656Z,19.20
2018-09-03T07:22:02.967Z,19.30
2018-09-03T07:24:32.533Z,19.40
2018-09-03T07:27:01.896Z,19.50
2018-09-03T07:29:31.104Z,19.60
2018-09-03T07:32:00.381Z,19.70
2018-09-03T07:34:29.555Z,20.10
2018-09-03T07:36:58.896Z,20.40
2018-09-03T07:39:27.850Z,20.80
2018-09-03T07:41:56.892Z,20.90
2018-09-03T07:44:25.954Z,21.10
2018-09-03T07:46:54.982Z,21.60
2018-09-03T07:49:24.079Z,22.20
2018-09-03T07:51:53.133Z,22.80
2018-09-03T07:54:22.382Z,23.30
2018-09-03T07:56:51.274Z,23.10
2018-09-03T07:59:20.162Z,23.30
2018-09-03T08:01:49.070Z,23.50
2018-09-03T08:04:18.149Z,23.80
2018-09-03T08:06:47.142Z,23.70
2018-09-03T08:09:16.121Z,23.90
2018-09-03T08:11:45.134Z,24.50
2018-09-03T08:14:14.219Z,24.70
2018-09-03T08:16:43.396Z,24.70
2018-09-03T08:19:12.622Z,25.20
2018-09-03T08:21:41.784Z,25.70
2018-09-03T08:24:11.022Z,26.10
2018-09-03T08:26:41.039Z,26.10
2018-09-03T08:29:10.229Z,26.20
2018-09-03T08:31:39.326Z,26.00
2018-09-03T08:34:08.281Z,26.40
2018-09-03T08:36:37.332Z,26.40
2018-09-03T08:39:07.168Z,26.40
2018-09-03T08:41:36.497Z,26.40
2018-09-03T08:44:05.591Z,26.60
2018-09-03T08:46:34.516Z,26.80
2018-09-03T08:49:03.378Z,27.10
2018-09-03T08:51:32.493Z,27.40
2018-09-03T08:54:01.503Z,27.40
2018-09-03T08:56:30.680Z,27.50
2018-09-03T08:58:59.660Z,27.50
2018-09-03T09:01:28.587Z,27.70
2018-09-03T09:03:57.569Z,28.30
2018-09-03T09:06:26.532Z,28.40
2018-09-03T09:08:55.464Z,28.40
2018-09-03T09:11:24.333Z,28.70
2018-09-03T09:13:53.435Z,28.70
2018-09-03T09:16:22.506Z,28.70
2018-09-03T09:18:51.307Z,28.80
2018-09-03T09:21:20.296Z,28.90
2018-09-03T09:23:49.106Z,29.00
2018-09-03T09:26:18.182Z,29.10
2018-09-03T09:28:47.051Z,29.10
2018-09-03T09:31:16.104Z,29.50
2018-09-03T09:33:45.301Z,29.50
2018-09-03T09:36:14.286Z,29.60
2018-09-03T09:38:43.240Z,29.70
2018-09-03T09:41:12.245Z,29.60
2018-09-03T09:43:41.340Z,29.60
2018-09-03T09:46:10.369Z,29.40
2018-09-03T09:48:39.382Z,29.30
2018-09-03T09:51:08.479Z,29.40
2018-09-03T09:53:37.452Z,29.40
2018-09-03T09:56:06.540Z,29.40
2018-09-03T09:58:35.638Z,29.20
2018-09-03T10:01:10.037Z,29.00
2018-09-03T10:03:38.931Z,28.80
2018-09-03T10:06:07.952Z,29.00
2018-09-03T10:08:36.918Z,28.90
2018-09-03T10:11:06.530Z,28.80
2018-09-03T10:13:36.018Z,29.00
2018-09-03T10:16:05.107Z,29.10
2018-09-03T10:18:34.321Z,29.00
2018-09-03T10:21:03.428Z,28.90
2018-09-03T10:23:32.442Z,29.00
2018-09-03T10:26:01.639Z,29.10
2018-09-03T10:28:30.793Z,29.20
2018-09-03T10:30:59.799Z,29.10
2018-09-03T10:33:28.745Z,29.20
2018-09-03T10:35:57.669Z,29.40
2018-09-03T10:38:28.022Z,29.60
2018-09-03T10:40:57.041Z,30.10
2018-09-03T10:43:26.153Z,30.40
2018-09-03T10:45:55.257Z,30.00
2018-09-03T10:48:24.288Z,30.70
2018-09-03T10:50:53.701Z,30.60
2018-09-03T10:53:22.741Z,30.80
2018-09-03T10:55:51.778Z,31.20
2018-09-03T10:58:22.932Z,31.00
2018-09-03T11:00:52.133Z,31.30
2018-09-03T11:03:21.112Z,31.50
2018-09-03T11:05:50.039Z,31.40
2018-09-03T11:08:19.252Z,31.60
2018-09-03T11:10:48.112Z,31.60
2018-09-03T11:13:17.004Z,31.70
2018-09-03T11:15:45.981Z,31.40
2018-09-03T11:18:18.697Z,31.90
2018-09-03T11:20:47.805Z,31.60
2018-09-03T11:23:17.054Z,31.80
2018-09-03T11:25:46.068Z,32.00
2018-09-03T11:28:14.962Z,32.10
2018-09-03T11:30:45.979Z,32.10
2018-09-03T11:33:15.012Z,31.90
2018-09-03T11:35:44.215Z,31.70
2018-09-03T11:38:13.210Z,31.70
2018-09-03T11:40:42.183Z,31.70
2018-09-03T11:43:11.089Z,32.00
2018-09-03T11:45:40.184Z,32.10
2018-09-03T11:48:09.085Z,31.90
2018-09-03T11:50:38.170Z,32.10
2018-09-03T11:53:07.156Z,32.00
2018-09-03T11:55:36.566Z,32.00
2018-09-03T11:58:05.792Z,32.20
2018-09-03T12:00:34.878Z,32.20
2018-09-03T12:03:03.832Z,32.20
2018-09-03T12:05:32.740Z,32.20
2018-09-03T12:08:01.700Z,32.20
2018-09-03T12:10:30.692Z,31.60
2018-09-03T12:12:59.935Z,32.00
2018-09-03T12:15:40.178Z,31.70
2018-09-03T12:18:09.132Z,31.60
2018-09-03T12:20:38.126Z,32.40
2018-09-03T12:23:07.566Z,32.60
2018-09-03T12:25:36.426Z,32.70
2018-09-03T12:28:05.431Z,33.30
2018-09-03T12:30:34.546Z,33.60
2018-09-03T12:33:03.487Z,33.80
2018-09-03T12:35:32.514Z,34.00
2018-09-03T12:38:01.312Z,33.30
2018-09-03T12:40:30.234Z,33.00
2018-09-03T12:42:59.423Z,33.30
2018-09-03T12:45:34.569Z,33.20
2018-09-03T12:48:03.432Z,32.30
2018-09-03T12:50:32.283Z,32.70
2018-09-03T12:53:01.222Z,32.80
2018-09-03T12:55:30.002Z,33.60
2018-09-03T12:57:59.180Z,34.30
2018-09-03T13:00:28.081Z,34.70
2018-09-03T13:02:57.173Z,33.10
2018-09-03T13:05:26.211Z,32.70
2018-09-03T13:07:57.165Z,33.40
2018-09-03T13:10:26.098Z,33.90
2018-09-03T13:12:55.099Z,33.60
2018-09-03T13:15:23.933Z,34.10
2018-09-03T13:17:52.676Z,34.60
2018-09-03T13:20:21.464Z,34.80
2018-09-03T13:22:50.592Z,34.10
2018-09-03T13:25:19.432Z,33.50
2018-09-03T13:27:49.401Z,33.70
2018-09-03T13:30:18.598Z,33.50
2018-09-03T13:32:47.456Z,34.40
2018-09-03T13:35:16.463Z,35.10
2018-09-03T13:37:45.445Z,35.50
2018-09-03T13:40:14.369Z,34.40
2018-09-03T13:42:43.530Z,34.90
2018-09-03T13:45:12.533Z,34.70
2018-09-03T13:47:41.408Z,34.40
2018-09-03T13:50:11.203Z,33.80
2018-09-03T13:52:45.874Z,33.30
2018-09-03T13:55:14.744Z,33.80
2018-09-03T13:57:43.737Z,34.50
2018-09-03T14:00:15.106Z,34.60
2018-09-03T14:03:11.141Z,34.80
2018-09-03T14:05:40.115Z,34.70
2018-09-03T14:08:09.222Z,34.90
2018-09-03T14:10:38.220Z,35.00
2018-09-03T14:13:07.128Z,33.50
2018-09-03T14:15:38.651Z,33.80
2018-09-03T14:18:07.747Z,33.40
2018-09-03T14:20:36.729Z,33.60
2018-09-03T14:23:06.035Z,33.40
2018-09-03T14:25:35.166Z,33.30
2018-09-03T14:28:04.575Z,33.80
2018-09-03T14:30:33.536Z,34.30
2018-09-03T14:33:02.855Z,34.40
2018-09-03T14:35:31.968Z,34.50
2018-09-03T14:38:00.955Z,33.20
2018-09-03T14:40:30.116Z,33.70
2018-09-03T14:42:59.245Z,33.80
2018-09-03T14:45:28.216Z,33.00
2018-09-03T14:47:57.151Z,33.10
2018-09-03T14:50:30.423Z,33.80
2018-09-03T14:52:59.383Z,33.60
2018-09-03T14:55:28.412Z,34.70
2018-09-03T14:57:57.392Z,34.30
2018-09-03T15:00:26.564Z,34.10
2018-09-03T15:02:55.600Z,35.10
2018-09-03T15:05:24.556Z,34.90
2018-09-03T15:07:53.707Z,35.20
2018-09-03T15:10:22.667Z,35.40
2018-09-03T15:12:51.731Z,35.70
2018-09-03T15:15:20.641Z,36.10
2018-09-03T15:17:49.533Z,36.10
2018-09-03T15:20:18.539Z,35.70
2018-09-03T15:22:47.551Z,35.10
2018-09-03T15:25:16.600Z,34.40
2018-09-03T15:27:45.470Z,34.40
2018-09-03T15:30:14.396Z,34.70
2018-09-03T15:32:43.313Z,35.00
2018-09-03T15:35:12.602Z,35.10
2018-09-03T15:37:41.581Z,34.30
2018-09-03T15:40:10.460Z,34.80
2018-09-03T15:42:39.600Z,35.30
2018-09-03T15:45:09.068Z,35.50
2018-09-03T15:47:38.361Z,35.70
2018-09-03T15:50:07.462Z,35.60
2018-09-03T15:52:36.701Z,35.50
2018-09-03T15:55:05.686Z,35.40
2018-09-03T15:57:38.431Z,35.10
2018-09-03T16:00:08.616Z,34.50
2018-09-03T16:02:37.913Z,34.20
2018-09-03T16:05:07.046Z,34.40
2018-09-03T16:07:50.295Z,34.30
2018-09-03T16:10:19.199Z,34.40
2018-09-03T16:12:48.072Z,34.30
2018-09-03T16:15:17.112Z,34.30
2018-09-03T16:17:46.124Z,34.20
2018-09-03T16:20:15.088Z,34.20
2018-09-03T16:22:44.070Z,34.10
2018-09-03T16:25:20.638Z,34.00
2018-09-03T16:27:49.720Z,33.90
2018-09-03T16:30:18.711Z,33.90
2018-09-03T16:32:47.814Z,33.80
2018-09-03T16:35:17.036Z,33.80
2018-09-03T16:37:46.140Z,33.70
2018-09-03T16:40:16.615Z,33.60
2018-09-03T16:42:45.637Z,33.50
2018-09-03T16:45:20.592Z,33.40
2018-09-03T16:47:49.573Z,33.40
2018-09-03T16:50:18.574Z,33.30
2018-09-03T16:52:50.666Z,33.30
2018-09-03T16:55:19.782Z,33.20
2018-09-03T16:57:48.785Z,33.10
2018-09-03T17:00:18.094Z,33.00
2018-09-03T17:02:46.976Z,32.90
2018-09-03T17:05:17.349Z,32.80
2018-09-03T17:07:47.531Z,32.70
2018-09-03T17:10:16.737Z,32.60
2018-09-03T17:12:45.640Z,32.50
2018-09-03T17:15:18.567Z,32.30
2018-09-03T17:17:47.508Z,32.10
2018-09-03T17:20:16.790Z,31.90
2018-09-03T17:22:45.934Z,31.80
2018-09-03T17:25:14.686Z,31.70
2018-09-03T17:27:43.490Z,31.50
2018-09-03T17:30:13.493Z,31.40
2018-09-03T17:32:42.523Z,31.30
2018-09-03T17:35:11.395Z,31.20
2018-09-03T17:37:40.367Z,31.10
2018-09-03T17:40:09.183Z,31.00
2018-09-03T17:42:38.154Z,30.80
2018-09-03T17:45:08.298Z,30.70
2018-09-03T17:47:37.962Z,30.60
2018-09-03T17:50:07.222Z,30.50
2018-09-03T17:52:36.070Z,30.30
2018-09-03T17:55:05.161Z,30.20
2018-09-03T17:57:41.596Z,30.10
2018-09-03T18:00:18.130Z,29.90
2018-09-03T18:02:48.092Z,29.80
2018-09-03T18:05:17.359Z,29.70
2018-09-03T18:07:46.343Z,29.50
2018-09-03T18:10:16.335Z,29.50
2018-09-03T18:12:45.554Z,29.40
2018-09-03T18:15:14.623Z,29.20
2018-09-03T18:17:47.665Z,29.10
2018-09-03T18:20:16.848Z,29.00
2018-09-03T18:22:46.016Z,28.90
2018-09-03T18:25:14.940Z,28.80
2018-09-03T18:27:44.126Z,28.60
2018-09-03T18:30:13.680Z,28.60
2018-09-03T18:32:49.501Z,28.50
2018-09-03T18:35:18.460Z,28.30
2018-09-03T18:37:47.453Z,28.30
2018-09-03T18:40:16.472Z,28.10
2018-09-03T18:42:45.539Z,28.10
2018-09-03T18:45:14.753Z,28.00
2018-09-03T18:47:43.875Z,27.90
2018-09-03T18:50:13.990Z,27.70
2018-09-03T18:52:43.383Z,27.60
2018-09-03T18:55:12.286Z,27.50
2018-09-03T18:57:41.500Z,27.40
2018-09-03T19:00:10.661Z,27.30
2018-09-03T19:02:39.966Z,27.20
2018-09-03T19:05:10.162Z,27.10
2018-09-03T19:07:39.280Z,27.10
2018-09-03T19:10:08.369Z,26.90
2018-09-03T19:12:37.562Z,26.80
2018-09-03T19:15:07.352Z,26.80
2018-09-03T19:17:37.598Z,26.70
2018-09-03T19:20:06.914Z,26.60
2018-09-03T19:22:35.930Z,26.50
2018-09-03T19:25:05.060Z,26.40
2018-09-03T19:27:34.185Z,26.30
2018-09-03T19:30:03.277Z,26.20
2018-09-03T19:32:32.297Z,26.10
2018-09-03T19:35:01.165Z,26.10
2018-09-03T19:37:30.297Z,26.00
2018-09-03T19:39:59.417Z,25.90
2018-09-03T19:42:28.421Z,25.80
2018-09-03T19:44:57.787Z,25.70
2018-09-03T19:47:32.507Z,25.50
2018-09-03T19:50:01.372Z,25.60
2018-09-03T19:52:30.365Z,25.50
2018-09-03T19:54:59.499Z,25.50
2018-09-03T19:57:28.332Z,25.40
2018-09-03T19:59:57.420Z,25.40
2018-09-03T20:02:26.634Z,25.40
2018-09-03T20:05:09.074Z,25.30
2018-09-03T20:07:38.086Z,25.30
2018-09-03T20:10:07.484Z,25.20
2018-09-03T20:12:36.311Z,25.10
2018-09-03T20:15:05.626Z,25.00
2018-09-03T20:17:34.674Z,25.00
2018-09-03T20:20:03.614Z,24.90
2018-09-03T20:22:35.820Z,24.90
2018-09-03T20:25:04.996Z,24.80
2018-09-03T20:27:34.033Z,24.70
2018-09-03T20:30:03.091Z,24.70
2018-09-03T20:32:32.178Z,24.70
2018-09-03T20:35:01.507Z,24.50
2018-09-03T20:37:30.578Z,24.40
2018-09-03T20:39:59.675Z,24.30
2018-09-03T20:42:28.576Z,24.30
2018-09-03T20:44:57.703Z,24.10
2018-09-03T20:47:31.966Z,24.10
2018-09-03T20:50:01.074Z,24.00
2018-09-03T20:52:29.886Z,24.10
2018-09-03T20:54:58.793Z,23.80
2018-09-03T20:57:33.526Z,23.80
2018-09-03T21:00:03.108Z,23.80
2018-09-03T21:02:32.089Z,23.80
2018-09-03T21:05:00.850Z,23.80
2018-09-03T21:10:30.424Z,23.40
2018-09-03T21:12:59.203Z,23.50
2018-09-03T21:15:29.321Z,23.50
2018-09-03T21:17:58.108Z,23.50
2018-09-03T21:20:27.238Z,23.40
2018-09-03T21:22:56.328Z,23.30
2018-09-03T21:25:25.291Z,23.20
2018-09-03T21:27:54.480Z,23.20
2018-09-03T21:30:42.443Z,23.10
2018-09-03T21:33:16.951Z,23.00
2018-09-03T21:35:45.867Z,23.00
2018-09-03T21:38:14.814Z,23.00
2018-09-03T21:40:43.866Z,23.00
2018-09-03T21:43:12.861Z,22.90
2018-09-03T21:45:41.831Z,22.90
2018-09-03T21:48:10.797Z,23.00
2018-09-03T21:50:39.801Z,23.00
2018-09-03T21:53:08.703Z,22.90
2018-09-03T21:55:37.776Z,22.80
2018-09-03T21:58:06.885Z,22.80
2018-09-03T22:00:37.098Z,22.70
2018-09-03T22:03:06.781Z,22.60
2018-09-03T22:05:35.847Z,22.60
2018-09-03T22:08:05.131Z,22.70
2018-09-03T22:10:34.037Z,22.60
2018-09-03T22:13:03.102Z,22.60
2018-09-03T22:15:31.872Z,22.60
2018-09-03T22:18:00.782Z,22.60
2018-09-03T22:20:29.696Z,22.60
2018-09-03T22:22:58.593Z,22.50
2018-09-03T22:25:27.877Z,22.50
2018-09-03T22:27:56.852Z,22.40
2018-09-03T22:30:26.063Z,22.40
2018-09-03T22:32:55.063Z,22.40
2018-09-03T22:35:24.059Z,22.30
2018-09-03T22:37:53.064Z,22.30
2018-09-03T22:40:22.013Z,22.20
2018-09-03T22:42:51.037Z,22.20
2018-09-03T22:45:20.255Z,22.10
2018-09-03T22:47:49.248Z,22.10
2018-09-03T22:50:18.333Z,22.00
2018-09-03T22:52:47.318Z,22.00
2018-09-03T22:55:16.311Z,22.00
2018-09-03T22:57:45.299Z,21.90
2018-09-03T23:00:14.327Z,21.90
2018-09-03T23:02:46.132Z,21.80
2018-09-03T23:05:15.237Z,21.80
2018-09-03T23:07:44.164Z,21.70
2018-09-03T23:10:13.358Z,21.70
2018-09-03T23:12:44.296Z,21.60
2018-09-03T23:15:13.373Z,21.60
2018-09-03T23:17:42.230Z,21.50
2018-09-03T23:20:11.193Z,21.50
2018-09-03T23:22:40.429Z,21.40
2018-09-03T23:25:09.336Z,21.40
2018-09-03T23:27:38.437Z,21.30
2018-09-03T23:30:07.413Z,21.30
2018-09-03T23:32:36.522Z,21.30
2018-09-03T23:35:05.820Z,21.20
2018-09-03T23:37:35.039Z,21.20
2018-09-03T23:40:03.898Z,21.10
2018-09-03T23:42:32.934Z,21.00
2018-09-03T23:45:01.889Z,21.10
2018-09-03T23:47:30.810Z,21.00
2018-09-03T23:50:00.006Z,21.00
2018-09-03T23:52:28.987Z,21.00
2018-09-03T23:54:57.976Z,20.90
2018-09-03T23:57:36.715Z,20.80
